sensor_id;sensor_type;location;lat;lon;timestamp;P1;durP1;ratioP1;P2;durP2;ratioP2
39294;SDS011;52361;52.100;5.248;2023-07-13T00:00:54;3.5;;;1.2;;
39294;SDS011;52361;52.100;5.248;2023-07-13T00:04:06;8.81;;;2.7;;
39294;SDS011;52361;52.100;5.248;2023-07-13T00:05:42;2.0;;;1.2;;
39294;SDS011;52361;52.100;5.248;2023-07-13T00:07:18;3.2;;;1.2;;
39294;SDS011;52361;52.100;5.248;2023-07-13T00:10:30;5.2;;;1.4;;
39294;SDS011;52361;52.100;5.248;2023-07-13T00:12:21;3.1;;;1.0;;
39294;SDS011;52361;52.100;5.248;2023-07-13T00:14:04;7.5;;;1.7;;
39294;SDS011;52361;52.100;5.248;2023-07-13T00:15:40;1.6;;;1.11;;
39294;SDS011;52361;52.100;5.248;2023-07-13T00:18:52;4.41;;;1.3;;
39294;SDS011;52361;52.100;5.248;2023-07-13T00:20:28;2.5;;;1.6;;
39294;SDS011;52361;52.100;5.248;2023-07-13T00:22:04;7.5;;;2.0;;
39294;SDS011;52361;52.100;5.248;2023-07-13T00:25:18;5.2;;;1.2;;
39294;SDS011;52361;52.100;5.248;2023-07-13T00:26:55;4.8;;;2.31;;
39294;SDS011;52361;52.100;5.248;2023-07-13T00:28:31;3.7;;;1.7;;
39294;SDS011;52361;52.100;5.248;2023-07-13T00:30:08;2.21;;;1.11;;
39294;SDS011;52361;52.100;5.248;2023-07-13T00:33:22;6.3;;;1.3;;
39294;SDS011;52361;52.100;5.248;2023-07-13T00:34:58;5.0;;;1.11;;
39294;SDS011;52361;52.100;5.248;2023-07-13T00:36:35;4.0;;;1.5;;
39294;SDS011;52361;52.100;5.248;2023-07-13T00:39:47;4.7;;;1.7;;
39294;SDS011;52361;52.100;5.248;2023-07-13T00:41:23;5.6;;;1.2;;
39294;SDS011;52361;52.100;5.248;2023-07-13T00:42:59;3.4;;;1.7;;
39294;SDS011;52361;52.100;5.248;2023-07-13T00:46:14;4.1;;;1.4;;
39294;SDS011;52361;52.100;5.248;2023-07-13T00:48:00;4.0;;;1.3;;
39294;SDS011;52361;52.100;5.248;2023-07-13T00:49:36;5.3;;;1.2;;
39294;SDS011;52361;52.100;5.248;2023-07-13T00:51:12;4.61;;;1.5;;
39294;SDS011;52361;52.100;5.248;2023-07-13T00:54:31;2.5;;;1.6;;
39294;SDS011;52361;52.100;5.248;2023-07-13T00:56:15;4.2;;;1.5;;
39294;SDS011;52361;52.100;5.248;2023-07-13T00:57:51;4.41;;;1.0;;
39294;SDS011;52361;52.100;5.248;2023-07-13T00:59:27;3.2;;;2.5;;
39294;SDS011;52361;52.100;5.248;2023-07-13T01:02:41;3.5;;;1.4;;
39294;SDS011;52361;52.100;5.248;2023-07-13T01:04:23;7.3;;;1.3;;
39294;SDS011;52361;52.100;5.248;2023-07-13T01:06:00;7.0;;;1.5;;
39294;SDS011;52361;52.100;5.248;2023-07-13T01:09:13;8.71;;;1.6;;
39294;SDS011;52361;52.100;5.248;2023-07-13T01:10:51;4.5;;;1.4;;
39294;SDS011;52361;52.100;5.248;2023-07-13T01:12:28;2.8;;;1.3;;
39294;SDS011;52361;52.100;5.248;2023-07-13T01:14:05;3.8;;;1.0;;
39294;SDS011;52361;52.100;5.248;2023-07-13T01:17:20;1.5;;;1.2;;
39294;SDS011;52361;52.100;5.248;2023-07-13T01:18:56;2.4;;;1.2;;
39294;SDS011;52361;52.100;5.248;2023-07-13T01:20:33;3.1;;;1.4;;
39294;SDS011;52361;52.100;5.248;2023-07-13T01:23:50;3.4;;;1.8;;
39294;SDS011;52361;52.100;5.248;2023-07-13T01:25:27;4.8;;;1.7;;
39294;SDS011;52361;52.100;5.248;2023-07-13T01:27:04;4.41;;;1.4;;
39294;SDS011;52361;52.100;5.248;2023-07-13T01:28:42;7.9;;;1.3;;
39294;SDS011;52361;52.100;5.248;2023-07-13T01:31:55;4.7;;;1.7;;
39294;SDS011;52361;52.100;5.248;2023-07-13T01:33:31;3.7;;;1.11;;
39294;SDS011;52361;52.100;5.248;2023-07-13T01:35:07;5.5;;;1.5;;
39294;SDS011;52361;52.100;5.248;2023-07-13T01:38:20;4.61;;;1.3;;
39294;SDS011;52361;52.100;5.248;2023-07-13T01:39:58;1.9;;;1.3;;
39294;SDS011;52361;52.100;5.248;2023-07-13T01:41:35;2.6;;;1.2;;
39294;SDS011;52361;52.100;5.248;2023-07-13T01:44:48;4.2;;;1.4;;
39294;SDS011;52361;52.100;5.248;2023-07-13T01:46:24;3.2;;;0.9;;
39294;SDS011;52361;52.100;5.248;2023-07-13T01:48:00;5.5;;;1.2;;
39294;SDS011;52361;52.100;5.248;2023-07-13T01:49:36;3.6;;;1.4;;
39294;SDS011;52361;52.100;5.248;2023-07-13T01:52:49;1.7;;;1.2;;
39294;SDS011;52361;52.100;5.248;2023-07-13T01:54:25;1.7;;;1.2;;
39294;SDS011;52361;52.100;5.248;2023-07-13T01:56:01;3.5;;;1.2;;
39294;SDS011;52361;52.100;5.248;2023-07-13T01:59:13;6.0;;;2.0;;
39294;SDS011;52361;52.100;5.248;2023-07-13T02:00:49;2.9;;;1.5;;
39294;SDS011;52361;52.100;5.248;2023-07-13T02:02:27;4.3;;;2.0;;
39294;SDS011;52361;52.100;5.248;2023-07-13T02:05:40;4.8;;;1.2;;
39294;SDS011;52361;52.100;5.248;2023-07-13T02:07:16;3.7;;;1.2;;
39294;SDS011;52361;52.100;5.248;2023-07-13T02:08:52;6.8;;;1.7;;
39294;SDS011;52361;52.100;5.248;2023-07-13T02:10:29;4.0;;;2.0;;
39294;SDS011;52361;52.100;5.248;2023-07-13T02:13:42;3.3;;;1.5;;
39294;SDS011;52361;52.100;5.248;2023-07-13T02:15:18;4.61;;;1.5;;
39294;SDS011;52361;52.100;5.248;2023-07-13T02:16:55;6.0;;;2.21;;
39294;SDS011;52361;52.100;5.248;2023-07-13T02:20:07;3.9;;;1.3;;
39294;SDS011;52361;52.100;5.248;2023-07-13T02:21:44;2.8;;;1.0;;
39294;SDS011;52361;52.100;5.248;2023-07-13T02:23:20;5.8;;;1.9;;
39294;SDS011;52361;52.100;5.248;2023-07-13T02:26:33;5.8;;;1.9;;
39294;SDS011;52361;52.100;5.248;2023-07-13T02:29:46;4.7;;;2.1;;
39294;SDS011;52361;52.100;5.248;2023-07-13T02:31:22;3.9;;;1.3;;
39294;SDS011;52361;52.100;5.248;2023-07-13T02:34:34;5.6;;;1.5;;
39294;SDS011;52361;52.100;5.248;2023-07-13T02:36:10;5.2;;;2.31;;
39294;SDS011;52361;52.100;5.248;2023-07-13T02:37:48;4.8;;;1.5;;
39294;SDS011;52361;52.100;5.248;2023-07-13T02:41:01;3.3;;;1.5;;
39294;SDS011;52361;52.100;5.248;2023-07-13T02:42:37;8.4;;;2.4;;
39294;SDS011;52361;52.100;5.248;2023-07-13T02:44:13;5.5;;;1.9;;
39294;SDS011;52361;52.100;5.248;2023-07-13T02:47:26;4.61;;;1.3;;
39294;SDS011;52361;52.100;5.248;2023-07-13T02:49:02;10.3;;;2.6;;
39294;SDS011;52361;52.100;5.248;2023-07-13T02:50:39;4.61;;;1.5;;
39294;SDS011;52361;52.100;5.248;2023-07-13T02:53:52;9.9;;;2.6;;
39294;SDS011;52361;52.100;5.248;2023-07-13T02:55:28;6.1;;;1.11;;
39294;SDS011;52361;52.100;5.248;2023-07-13T02:57:04;6.9;;;2.1;;
39294;SDS011;52361;52.100;5.248;2023-07-13T02:58:41;6.1;;;2.1;;
39294;SDS011;52361;52.100;5.248;2023-07-13T03:01:53;7.4;;;1.9;;
39294;SDS011;52361;52.100;5.248;2023-07-13T03:03:30;6.6;;;2.31;;
39294;SDS011;52361;52.100;5.248;2023-07-13T03:05:06;10.3;;;2.0;;
39294;SDS011;52361;52.100;5.248;2023-07-13T03:08:19;4.7;;;2.1;;
39294;SDS011;52361;52.100;5.248;2023-07-13T03:09:55;5.0;;;1.4;;
39294;SDS011;52361;52.100;5.248;2023-07-13T03:11:32;4.7;;;1.5;;
39294;SDS011;52361;52.100;5.248;2023-07-13T03:14:45;9.6;;;2.0;;
39294;SDS011;52361;52.100;5.248;2023-07-13T03:16:21;7.6;;;1.7;;
39294;SDS011;52361;52.100;5.248;2023-07-13T03:17:58;2.6;;;1.8;;
39294;SDS011;52361;52.100;5.248;2023-07-13T03:19:34;6.5;;;2.21;;
39294;SDS011;52361;52.100;5.248;2023-07-13T03:22:46;4.61;;;1.4;;
39294;SDS011;52361;52.100;5.248;2023-07-13T03:24:22;7.8;;;2.0;;
39294;SDS011;52361;52.100;5.248;2023-07-13T03:26:02;7.0;;;2.31;;
39294;SDS011;52361;52.100;5.248;2023-07-13T03:29:17;4.41;;;1.4;;
39294;SDS011;52361;52.100;5.248;2023-07-13T03:30:58;7.5;;;1.5;;
39294;SDS011;52361;52.100;5.248;2023-07-13T03:32:35;4.0;;;2.21;;
39294;SDS011;52361;52.100;5.248;2023-07-13T03:34:11;5.6;;;1.9;;
39294;SDS011;52361;52.100;5.248;2023-07-13T03:37:23;11.2;;;2.21;;
39294;SDS011;52361;52.100;5.248;2023-07-13T03:39:00;6.6;;;2.1;;
39294;SDS011;52361;52.100;5.248;2023-07-13T03:40:38;6.2;;;1.3;;
39294;SDS011;52361;52.100;5.248;2023-07-13T03:43:50;3.8;;;1.4;;
39294;SDS011;52361;52.100;5.248;2023-07-13T03:45:27;4.8;;;1.7;;
39294;SDS011;52361;52.100;5.248;2023-07-13T03:47:04;5.7;;;1.8;;
39294;SDS011;52361;52.100;5.248;2023-07-13T03:50:16;6.9;;;1.7;;
39294;SDS011;52361;52.100;5.248;2023-07-13T03:51:52;8.6;;;2.4;;
39294;SDS011;52361;52.100;5.248;2023-07-13T03:53:28;4.7;;;1.5;;
39294;SDS011;52361;52.100;5.248;2023-07-13T03:55:04;3.3;;;1.9;;
39294;SDS011;52361;52.100;5.248;2023-07-13T03:58:26;8.5;;;2.5;;
39294;SDS011;52361;52.100;5.248;2023-07-13T04:00:13;6.5;;;2.4;;
39294;SDS011;52361;52.100;5.248;2023-07-13T04:01:50;8.31;;;1.8;;
39294;SDS011;52361;52.100;5.248;2023-07-13T04:03:26;3.8;;;1.7;;
39294;SDS011;52361;52.100;5.248;2023-07-13T04:06:40;5.7;;;2.0;;
39294;SDS011;52361;52.100;5.248;2023-07-13T04:08:16;7.6;;;2.7;;
39294;SDS011;52361;52.100;5.248;2023-07-13T04:09:52;5.11;;;1.9;;
39294;SDS011;52361;52.100;5.248;2023-07-13T04:13:08;6.6;;;2.0;;
39294;SDS011;52361;52.100;5.248;2023-07-13T04:14:44;9.0;;;2.21;;
39294;SDS011;52361;52.100;5.248;2023-07-13T04:16:20;6.8;;;2.1;;
39294;SDS011;52361;52.100;5.248;2023-07-13T04:19:34;10.8;;;2.31;;
39294;SDS011;52361;52.100;5.248;2023-07-13T04:21:10;4.1;;;1.9;;
39294;SDS011;52361;52.100;5.248;2023-07-13T04:22:47;4.1;;;1.7;;
39294;SDS011;52361;52.100;5.248;2023-07-13T04:27:36;6.3;;;2.4;;
39294;SDS011;52361;52.100;5.248;2023-07-13T04:29:12;11.6;;;2.4;;
39294;SDS011;52361;52.100;5.248;2023-07-13T04:30:48;7.2;;;2.1;;
39294;SDS011;52361;52.100;5.248;2023-07-13T04:34:01;5.7;;;1.9;;
39294;SDS011;52361;52.100;5.248;2023-07-13T04:35:38;6.7;;;2.7;;
39294;SDS011;52361;52.100;5.248;2023-07-13T04:37:15;4.8;;;2.21;;
39294;SDS011;52361;52.100;5.248;2023-07-13T04:40:27;5.4;;;2.1;;
39294;SDS011;52361;52.100;5.248;2023-07-13T04:42:04;8.6;;;2.0;;
39294;SDS011;52361;52.100;5.248;2023-07-13T04:43:41;5.3;;;2.21;;
39294;SDS011;52361;52.100;5.248;2023-07-13T04:45:17;7.4;;;2.0;;
39294;SDS011;52361;52.100;5.248;2023-07-13T04:48:30;7.4;;;2.31;;
39294;SDS011;52361;52.100;5.248;2023-07-13T04:50:06;9.1;;;2.7;;
39294;SDS011;52361;52.100;5.248;2023-07-13T04:51:44;10.8;;;2.8;;
39294;SDS011;52361;52.100;5.248;2023-07-13T04:54:56;6.0;;;2.4;;
39294;SDS011;52361;52.100;5.248;2023-07-13T04:56:32;8.4;;;3.5;;
39294;SDS011;52361;52.100;5.248;2023-07-13T04:58:08;8.4;;;2.4;;
39294;SDS011;52361;52.100;5.248;2023-07-13T05:01:21;6.9;;;2.4;;
39294;SDS011;52361;52.100;5.248;2023-07-13T05:02:57;8.31;;;2.4;;
39294;SDS011;52361;52.100;5.248;2023-07-13T05:04:34;8.4;;;2.7;;
39294;SDS011;52361;52.100;5.248;2023-07-13T05:06:10;7.6;;;2.1;;
39294;SDS011;52361;52.100;5.248;2023-07-13T05:09:22;10.3;;;1.9;;
39294;SDS011;52361;52.100;5.248;2023-07-13T05:10:59;8.2;;;2.5;;
39294;SDS011;52361;52.100;5.248;2023-07-13T05:12:36;4.0;;;2.21;;
39294;SDS011;52361;52.100;5.248;2023-07-13T05:15:55;4.61;;;2.31;;
39294;SDS011;52361;52.100;5.248;2023-07-13T05:17:32;22.1;;;4.0;;
39294;SDS011;52361;52.100;5.248;2023-07-13T05:19:09;5.2;;;2.6;;
39294;SDS011;52361;52.100;5.248;2023-07-13T05:22:22;10.0;;;3.1;;
39294;SDS011;52361;52.100;5.248;2023-07-13T05:23:59;10.0;;;2.6;;
39294;SDS011;52361;52.100;5.248;2023-07-13T05:25:35;7.2;;;2.6;;
39294;SDS011;52361;52.100;5.248;2023-07-13T05:27:11;7.6;;;2.9;;
39294;SDS011;52361;52.100;5.248;2023-07-13T05:30:23;7.4;;;2.4;;
39294;SDS011;52361;52.100;5.248;2023-07-13T05:31:59;10.9;;;2.9;;
39294;SDS011;52361;52.100;5.248;2023-07-13T05:33:36;8.1;;;2.21;;
39294;SDS011;52361;52.100;5.248;2023-07-13T05:36:48;4.5;;;2.1;;
39294;SDS011;52361;52.100;5.248;2023-07-13T05:38:25;10.4;;;3.3;;
39294;SDS011;52361;52.100;5.248;2023-07-13T05:40:01;6.8;;;2.7;;
39294;SDS011;52361;52.100;5.248;2023-07-13T05:43:13;6.7;;;2.5;;
39294;SDS011;52361;52.100;5.248;2023-07-13T05:44:51;10.4;;;3.4;;
39294;SDS011;52361;52.100;5.248;2023-07-13T05:46:28;11.2;;;3.6;;
39294;SDS011;52361;52.100;5.248;2023-07-13T05:48:04;7.6;;;3.3;;
39294;SDS011;52361;52.100;5.248;2023-07-13T05:51:16;9.4;;;3.5;;
39294;SDS011;52361;52.100;5.248;2023-07-13T05:52:52;7.6;;;3.5;;
39294;SDS011;52361;52.100;5.248;2023-07-13T05:54:28;13.1;;;3.9;;
39294;SDS011;52361;52.100;5.248;2023-07-13T05:57:41;7.8;;;3.4;;
39294;SDS011;52361;52.100;5.248;2023-07-13T05:59:17;9.0;;;3.0;;
39294;SDS011;52361;52.100;5.248;2023-07-13T06:00:58;8.81;;;3.3;;
39294;SDS011;52361;52.100;5.248;2023-07-13T06:04:12;7.8;;;3.2;;
39294;SDS011;52361;52.100;5.248;2023-07-13T06:05:48;12.8;;;4.5;;
39294;SDS011;52361;52.100;5.248;2023-07-13T06:07:24;4.7;;;2.4;;
39294;SDS011;52361;52.100;5.248;2023-07-13T06:09:01;8.4;;;3.0;;
39294;SDS011;52361;52.100;5.248;2023-07-13T06:12:14;5.4;;;3.2;;
39294;SDS011;52361;52.100;5.248;2023-07-13T06:13:50;9.5;;;3.0;;
39294;SDS011;52361;52.100;5.248;2023-07-13T06:15:27;8.31;;;3.4;;
39294;SDS011;52361;52.100;5.248;2023-07-13T06:18:41;11.3;;;3.8;;
39294;SDS011;52361;52.100;5.248;2023-07-13T06:20:17;4.91;;;2.7;;
39294;SDS011;52361;52.100;5.248;2023-07-13T06:21:54;7.7;;;3.1;;
39294;SDS011;52361;52.100;5.248;2023-07-13T06:25:06;9.71;;;3.9;;
39294;SDS011;52361;52.100;5.248;2023-07-13T06:26:43;9.6;;;3.8;;
39294;SDS011;52361;52.100;5.248;2023-07-13T06:28:19;8.81;;;4.1;;
39294;SDS011;52361;52.100;5.248;2023-07-13T06:29:55;9.21;;;3.5;;
39294;SDS011;52361;52.100;5.248;2023-07-13T06:33:07;9.5;;;4.0;;
39294;SDS011;52361;52.100;5.248;2023-07-13T06:34:43;11.8;;;4.0;;
39294;SDS011;52361;52.100;5.248;2023-07-13T06:36:19;10.9;;;5.0;;
39294;SDS011;52361;52.100;5.248;2023-07-13T06:39:32;13.2;;;4.1;;
39294;SDS011;52361;52.100;5.248;2023-07-13T06:42:45;7.2;;;4.2;;
39294;SDS011;52361;52.100;5.248;2023-07-13T06:45:57;9.6;;;4.61;;
39294;SDS011;52361;52.100;5.248;2023-07-13T06:47:34;7.8;;;4.0;;
39294;SDS011;52361;52.100;5.248;2023-07-13T06:49:10;10.9;;;4.3;;
39294;SDS011;52361;52.100;5.248;2023-07-13T06:50:47;10.9;;;5.5;;
39294;SDS011;52361;52.100;5.248;2023-07-13T06:54:01;9.0;;;4.0;;
39294;SDS011;52361;52.100;5.248;2023-07-13T06:55:37;10.6;;;4.5;;
39294;SDS011;52361;52.100;5.248;2023-07-13T06:57:14;7.6;;;4.3;;
39294;SDS011;52361;52.100;5.248;2023-07-13T07:00:26;11.9;;;4.5;;
39294;SDS011;52361;52.100;5.248;2023-07-13T07:02:02;11.9;;;4.5;;
39294;SDS011;52361;52.100;5.248;2023-07-13T07:03:39;9.4;;;4.7;;
39294;SDS011;52361;52.100;5.248;2023-07-13T07:06:52;9.6;;;4.8;;
39294;SDS011;52361;52.100;5.248;2023-07-13T07:10:04;10.0;;;4.61;;
39294;SDS011;52361;52.100;5.248;2023-07-13T07:13:18;12.2;;;4.91;;
39294;SDS011;52361;52.100;5.248;2023-07-13T07:16:31;7.1;;;4.5;;
39294;SDS011;52361;52.100;5.248;2023-07-13T07:18:07;14.2;;;4.8;;
39294;SDS011;52361;52.100;5.248;2023-07-13T07:21:19;9.1;;;4.1;;
39294;SDS011;52361;52.100;5.248;2023-07-13T07:22:55;10.6;;;4.8;;
39294;SDS011;52361;52.100;5.248;2023-07-13T07:24:31;10.3;;;4.5;;
39294;SDS011;52361;52.100;5.248;2023-07-13T07:27:43;8.71;;;4.5;;
39294;SDS011;52361;52.100;5.248;2023-07-13T07:29:21;11.2;;;4.61;;
39294;SDS011;52361;52.100;5.248;2023-07-13T07:30:57;8.81;;;5.2;;
39294;SDS011;52361;52.100;5.248;2023-07-13T07:34:10;13.4;;;5.2;;
39294;SDS011;52361;52.100;5.248;2023-07-13T07:35:46;14.4;;;6.5;;
39294;SDS011;52361;52.100;5.248;2023-07-13T07:37:22;9.9;;;5.11;;
39294;SDS011;52361;52.100;5.248;2023-07-13T07:38:59;7.6;;;4.8;;
39294;SDS011;52361;52.100;5.248;2023-07-13T07:42:13;8.9;;;5.3;;
39294;SDS011;52361;52.100;5.248;2023-07-13T07:43:49;8.9;;;4.41;;
39294;SDS011;52361;52.100;5.248;2023-07-13T07:45:26;9.9;;;3.7;;
39294;SDS011;52361;52.100;5.248;2023-07-13T07:48:39;11.4;;;4.8;;
39294;SDS011;52361;52.100;5.248;2023-07-13T07:50:15;7.8;;;4.41;;
39294;SDS011;52361;52.100;5.248;2023-07-13T07:51:51;11.8;;;4.1;;
39294;SDS011;52361;52.100;5.248;2023-07-13T07:55:04;10.3;;;4.41;;
39294;SDS011;52361;52.100;5.248;2023-07-13T07:56:43;4.91;;;4.1;;
39294;SDS011;52361;52.100;5.248;2023-07-13T07:58:20;11.8;;;4.5;;
39294;SDS011;52361;52.100;5.248;2023-07-13T07:59:56;10.6;;;4.1;;
39294;SDS011;52361;52.100;5.248;2023-07-13T08:03:08;10.6;;;4.1;;
39294;SDS011;52361;52.100;5.248;2023-07-13T08:06:22;10.3;;;3.8;;
39294;SDS011;52361;52.100;5.248;2023-07-13T08:09:36;10.0;;;3.7;;
39294;SDS011;52361;52.100;5.248;2023-07-13T08:11:12;6.8;;;3.7;;
39294;SDS011;52361;52.100;5.248;2023-07-13T08:12:48;10.8;;;5.11;;
39294;SDS011;52361;52.100;5.248;2023-07-13T08:16:01;11.6;;;4.41;;
39294;SDS011;52361;52.100;5.248;2023-07-13T08:17:40;5.2;;;3.1;;
39294;SDS011;52361;52.100;5.248;2023-07-13T08:19:17;6.1;;;3.0;;
39294;SDS011;52361;52.100;5.248;2023-07-13T08:20:53;8.81;;;2.8;;
39294;SDS011;52361;52.100;5.248;2023-07-13T08:24:05;5.0;;;2.8;;
39294;SDS011;52361;52.100;5.248;2023-07-13T08:25:42;6.3;;;3.4;;
39294;SDS011;52361;52.100;5.248;2023-07-13T08:27:27;8.81;;;3.3;;
39294;SDS011;52361;52.100;5.248;2023-07-13T08:30:40;7.1;;;2.8;;
39294;SDS011;52361;52.100;5.248;2023-07-13T08:32:17;8.5;;;2.9;;
39294;SDS011;52361;52.100;5.248;2023-07-13T08:33:55;1.9;;;1.7;;
39294;SDS011;52361;52.100;5.248;2023-07-13T08:35:31;4.2;;;1.7;;
39294;SDS011;52361;52.100;5.248;2023-07-13T08:40:23;1.9;;;1.2;;
39294;SDS011;52361;52.100;5.248;2023-07-13T08:42:04;3.5;;;1.4;;
39294;SDS011;52361;52.100;5.248;2023-07-13T08:43:49;3.0;;;1.5;;
39294;SDS011;52361;52.100;5.248;2023-07-13T08:47:18;1.9;;;1.4;;
39294;SDS011;52361;52.100;5.248;2023-07-13T08:49:01;1.11;;;1.0;;
39294;SDS011;52361;52.100;5.248;2023-07-13T08:50:43;4.0;;;1.9;;
39294;SDS011;52361;52.100;5.248;2023-07-13T08:52:34;3.3;;;1.5;;
39294;SDS011;52361;52.100;5.248;2023-07-13T08:54:18;3.2;;;1.6;;
39294;SDS011;52361;52.100;5.248;2023-07-13T08:57:36;2.5;;;1.3;;
39294;SDS011;52361;52.100;5.248;2023-07-13T08:59:17;2.5;;;1.3;;
39294;SDS011;52361;52.100;5.248;2023-07-13T09:00:59;1.7;;;1.6;;
39294;SDS011;52361;52.100;5.248;2023-07-13T09:02:45;2.7;;;1.7;;
39294;SDS011;52361;52.100;5.248;2023-07-13T09:06:10;2.1;;;1.6;;
39294;SDS011;52361;52.100;5.248;2023-07-13T09:07:57;8.0;;;1.9;;
39294;SDS011;52361;52.100;5.248;2023-07-13T09:09:52;4.91;;;2.1;;
39294;SDS011;52361;52.100;5.248;2023-07-13T09:11:46;4.61;;;2.0;;
39294;SDS011;52361;52.100;5.248;2023-07-13T09:13:31;2.8;;;2.1;;
39294;SDS011;52361;52.100;5.248;2023-07-13T09:15:21;3.5;;;2.0;;
39294;SDS011;52361;52.100;5.248;2023-07-13T09:18:48;2.1;;;1.6;;
39294;SDS011;52361;52.100;5.248;2023-07-13T09:20:28;1.5;;;1.3;;
39294;SDS011;52361;52.100;5.248;2023-07-13T09:22:13;3.8;;;1.4;;
39294;SDS011;52361;52.100;5.248;2023-07-13T09:23:56;3.0;;;1.5;;
39294;SDS011;52361;52.100;5.248;2023-07-13T09:26:00;1.7;;;1.4;;
39294;SDS011;52361;52.100;5.248;2023-07-13T09:27:43;3.1;;;1.5;;
39294;SDS011;52361;52.100;5.248;2023-07-13T09:31:07;4.7;;;1.7;;
39294;SDS011;52361;52.100;5.248;2023-07-13T09:32:50;3.2;;;1.5;;
39294;SDS011;52361;52.100;5.248;2023-07-13T09:34:28;1.9;;;1.4;;
39294;SDS011;52361;52.100;5.248;2023-07-13T09:36:15;2.6;;;1.8;;
39294;SDS011;52361;52.100;5.248;2023-07-13T09:39:46;3.4;;;1.6;;
39294;SDS011;52361;52.100;5.248;2023-07-13T09:41:26;6.0;;;2.21;;
39294;SDS011;52361;52.100;5.248;2023-07-13T09:43:10;6.3;;;1.9;;
39294;SDS011;52361;52.100;5.248;2023-07-13T09:44:51;3.6;;;2.8;;
39294;SDS011;52361;52.100;5.248;2023-07-13T09:48:07;2.0;;;1.5;;
39294;SDS011;52361;52.100;5.248;2023-07-13T09:49:48;3.8;;;1.8;;
39294;SDS011;52361;52.100;5.248;2023-07-13T09:51:31;5.8;;;1.7;;
39294;SDS011;52361;52.100;5.248;2023-07-13T09:53:11;2.21;;;1.11;;
39294;SDS011;52361;52.100;5.248;2023-07-13T09:56:28;3.4;;;1.9;;
39294;SDS011;52361;52.100;5.248;2023-07-13T09:58:08;2.6;;;1.8;;
39294;SDS011;52361;52.100;5.248;2023-07-13T09:59:48;2.21;;;1.9;;
39294;SDS011;52361;52.100;5.248;2023-07-13T10:01:32;4.3;;;2.1;;
39294;SDS011;52361;52.100;5.248;2023-07-13T10:04:55;3.1;;;1.8;;
39294;SDS011;52361;52.100;5.248;2023-07-13T10:06:34;2.9;;;1.6;;
39294;SDS011;52361;52.100;5.248;2023-07-13T10:08:18;2.6;;;1.3;;
39294;SDS011;52361;52.100;5.248;2023-07-13T10:09:58;4.41;;;1.9;;
39294;SDS011;52361;52.100;5.248;2023-07-13T10:11:37;5.4;;;2.0;;
39294;SDS011;52361;52.100;5.248;2023-07-13T10:15:13;2.21;;;1.5;;
39294;SDS011;52361;52.100;5.248;2023-07-13T10:16:57;4.5;;;1.7;;
39294;SDS011;52361;52.100;5.248;2023-07-13T10:18:38;2.4;;;1.7;;
39294;SDS011;52361;52.100;5.248;2023-07-13T10:20:20;5.5;;;1.8;;
39294;SDS011;52361;52.100;5.248;2023-07-13T10:23:37;2.7;;;1.4;;
39294;SDS011;52361;52.100;5.248;2023-07-13T10:25:15;9.71;;;2.5;;
39294;SDS011;52361;52.100;5.248;2023-07-13T10:26:55;5.11;;;1.9;;
39294;SDS011;52361;52.100;5.248;2023-07-13T10:28:51;3.5;;;1.5;;
39294;SDS011;52361;52.100;5.248;2023-07-13T10:30:31;2.21;;;1.7;;
39294;SDS011;52361;52.100;5.248;2023-07-13T10:33:50;3.3;;;1.4;;
39294;SDS011;52361;52.100;5.248;2023-07-13T10:35:28;1.6;;;1.2;;
39294;SDS011;52361;52.100;5.248;2023-07-13T10:37:06;2.8;;;1.5;;
39294;SDS011;52361;52.100;5.248;2023-07-13T10:38:52;1.3;;;1.11;;
39294;SDS011;52361;52.100;5.248;2023-07-13T10:42:15;1.5;;;1.2;;
39294;SDS011;52361;52.100;5.248;2023-07-13T10:44:11;1.5;;;1.2;;
39294;SDS011;52361;52.100;5.248;2023-07-13T10:45:55;2.6;;;1.4;;
39294;SDS011;52361;52.100;5.248;2023-07-13T10:47:32;3.1;;;1.2;;
39294;SDS011;52361;52.100;5.248;2023-07-13T10:50:49;3.1;;;1.11;;
39294;SDS011;52361;52.100;5.248;2023-07-13T10:54:26;1.4;;;1.3;;
39294;SDS011;52361;52.100;5.248;2023-07-13T10:56:06;1.4;;;1.2;;
39294;SDS011;52361;52.100;5.248;2023-07-13T10:57:59;1.9;;;1.3;;
39294;SDS011;52361;52.100;5.248;2023-07-13T11:01:15;3.2;;;1.11;;
39294;SDS011;52361;52.100;5.248;2023-07-13T11:04:39;1.6;;;1.3;;
39294;SDS011;52361;52.100;5.248;2023-07-13T11:06:28;2.7;;;1.9;;
39294;SDS011;52361;52.100;5.248;2023-07-13T11:08:13;2.9;;;1.3;;
39294;SDS011;52361;52.100;5.248;2023-07-13T11:11:36;1.7;;;1.6;;
39294;SDS011;52361;52.100;5.248;2023-07-13T11:13:35;3.5;;;1.4;;
39294;SDS011;52361;52.100;5.248;2023-07-13T11:15:32;2.9;;;1.4;;
39294;SDS011;52361;52.100;5.248;2023-07-13T11:17:24;3.5;;;1.7;;
39294;SDS011;52361;52.100;5.248;2023-07-13T11:19:28;3.2;;;1.7;;
39294;SDS011;52361;52.100;5.248;2023-07-13T11:21:17;2.7;;;1.7;;
39294;SDS011;52361;52.100;5.248;2023-07-13T11:23:06;4.0;;;1.7;;
39294;SDS011;52361;52.100;5.248;2023-07-13T11:24:59;5.7;;;2.21;;
39294;SDS011;52361;52.100;5.248;2023-07-13T11:30:06;3.2;;;2.0;;
39294;SDS011;52361;52.100;5.248;2023-07-13T11:32:00;2.6;;;1.7;;
39294;SDS011;52361;52.100;5.248;2023-07-13T11:33:59;3.1;;;2.0;;
39294;SDS011;52361;52.100;5.248;2023-07-13T11:35:37;3.4;;;2.0;;
39294;SDS011;52361;52.100;5.248;2023-07-13T11:39:00;6.4;;;2.31;;
39294;SDS011;52361;52.100;5.248;2023-07-13T11:42:20;3.9;;;2.6;;
39294;SDS011;52361;52.100;5.248;2023-07-13T11:44:02;7.7;;;2.21;;
39294;SDS011;52361;52.100;5.248;2023-07-13T11:47:21;3.9;;;2.4;;
39294;SDS011;52361;52.100;5.248;2023-07-13T11:48:58;2.1;;;1.7;;
39294;SDS011;52361;52.100;5.248;2023-07-13T11:50:35;3.9;;;2.21;;
39294;SDS011;52361;52.100;5.248;2023-07-13T11:52:11;4.91;;;2.21;;
39294;SDS011;52361;52.100;5.248;2023-07-13T11:55:29;4.3;;;2.21;;
39294;SDS011;52361;52.100;5.248;2023-07-13T11:57:06;3.2;;;2.1;;
39294;SDS011;52361;52.100;5.248;2023-07-13T11:59:04;2.5;;;2.1;;
39294;SDS011;52361;52.100;5.248;2023-07-13T12:00:43;3.9;;;1.6;;
39294;SDS011;52361;52.100;5.248;2023-07-13T12:04:06;3.5;;;2.31;;
39294;SDS011;52361;52.100;5.248;2023-07-13T12:05:55;4.5;;;1.9;;
39294;SDS011;52361;52.100;5.248;2023-07-13T12:07:35;3.1;;;2.0;;
39294;SDS011;52361;52.100;5.248;2023-07-13T12:09:13;3.1;;;2.0;;
39294;SDS011;52361;52.100;5.248;2023-07-13T12:12:40;2.1;;;1.9;;
39294;SDS011;52361;52.100;5.248;2023-07-13T12:14:24;1.8;;;1.6;;
39294;SDS011;52361;52.100;5.248;2023-07-13T12:16:00;2.4;;;1.7;;
39294;SDS011;52361;52.100;5.248;2023-07-13T12:17:36;1.7;;;1.4;;
39294;SDS011;52361;52.100;5.248;2023-07-13T12:20:55;1.8;;;1.4;;
39294;SDS011;52361;52.100;5.248;2023-07-13T12:22:34;5.4;;;1.7;;
39294;SDS011;52361;52.100;5.248;2023-07-13T12:24:13;2.1;;;1.4;;
39294;SDS011;52361;52.100;5.248;2023-07-13T12:25:52;3.4;;;2.0;;
39294;SDS011;52361;52.100;5.248;2023-07-13T12:29:05;2.8;;;1.6;;
39294;SDS011;52361;52.100;5.248;2023-07-13T12:30:43;4.5;;;2.6;;
39294;SDS011;52361;52.100;5.248;2023-07-13T12:32:25;2.31;;;1.5;;
39294;SDS011;52361;52.100;5.248;2023-07-13T12:34:03;1.4;;;1.3;;
39294;SDS011;52361;52.100;5.248;2023-07-13T12:37:25;3.6;;;1.4;;
39294;SDS011;52361;52.100;5.248;2023-07-13T12:39:04;3.8;;;1.6;;
39294;SDS011;52361;52.100;5.248;2023-07-13T12:40:49;2.31;;;1.7;;
39294;SDS011;52361;52.100;5.248;2023-07-13T12:42:28;1.6;;;1.3;;
39294;SDS011;52361;52.100;5.248;2023-07-13T12:45:56;3.7;;;1.6;;
39294;SDS011;52361;52.100;5.248;2023-07-13T12:47:38;6.2;;;2.4;;
39294;SDS011;52361;52.100;5.248;2023-07-13T12:49:16;3.3;;;1.8;;
39294;SDS011;52361;52.100;5.248;2023-07-13T12:51:00;3.6;;;1.6;;
39294;SDS011;52361;52.100;5.248;2023-07-13T12:54:15;6.5;;;1.8;;
39294;SDS011;52361;52.100;5.248;2023-07-13T12:55:54;2.0;;;1.4;;
39294;SDS011;52361;52.100;5.248;2023-07-13T12:57:37;2.31;;;1.6;;
39294;SDS011;52361;52.100;5.248;2023-07-13T12:59:17;2.7;;;1.6;;
39294;SDS011;52361;52.100;5.248;2023-07-13T13:02:36;3.5;;;1.6;;
39294;SDS011;52361;52.100;5.248;2023-07-13T13:04:13;2.7;;;1.4;;
39294;SDS011;52361;52.100;5.248;2023-07-13T13:05:49;1.6;;;1.5;;
39294;SDS011;52361;52.100;5.248;2023-07-13T13:07:25;2.21;;;1.5;;
39294;SDS011;52361;52.100;5.248;2023-07-13T13:10:39;1.9;;;1.6;;
39294;SDS011;52361;52.100;5.248;2023-07-13T13:12:17;1.4;;;1.2;;
39294;SDS011;52361;52.100;5.248;2023-07-13T13:13:52;2.21;;;1.3;;
39294;SDS011;52361;52.100;5.248;2023-07-13T13:17:11;2.0;;;1.11;;
39294;SDS011;52361;52.100;5.248;2023-07-13T13:18:55;1.11;;;1.0;;